Time;durP1;ratioP1;P1;durP2;ratioP2;P2;SDS_P1;SDS_P2;PMS_P1;PMS_P2;Temp;Humidity;BMP_temperature;BMP_pressure;BME280_temperature;BME280_humidity;BME280_pressure;Samples;Min_cycle;Max_cycle;Signal;HPM_P1;HPM_P2
2023/01/01 00:01:07;;;;;;;65.07;57.95;;;12.40;99.90;;;;;;5005542;28;20063;-78
2023/01/01 00:03:33;;;;;;;65.50;58.55;;;12.30;99.90;;;;;;5006658;28;20038;-79
2023/01/01 00:06:03;;;;;;;58.20;48.92;;;12.30;99.90;;;;;;5002809;28;20151;-78
2023/01/01 00:08:29;;;;;;;54.17;48.25;;;12.20;99.90;;;;;;5000874;28;20117;-79
2023/01/01 00:10:54;;;;;;;46.20;34.50;;;12.30;99.90;;;;;;4999424;28;20073;-79
2023/01/01 00:13:20;;;;;;;36.20;31.48;;;12.30;99.90;;;;;;4999002;28;20038;-79
2023/01/01 00:15:45;;;;;;;37.15;31.52;;;12.30;99.90;;;;;;5014111;28;20104;-79
2023/01/01 00:18:11;;;;;;;34.22;29.23;;;12.20;99.90;;;;;;4998962;28;20034;-79
2023/01/01 00:20:36;;;;;;;35.20;28.05;;;12.30;99.90;;;;;;5015779;28;20048;-79
2023/01/01 00:23:02;;;;;;;33.00;28.00;;;12.40;99.90;;;;;;4998758;28;21278;-79
2023/01/01 00:25:28;;;;;;;31.92;26.55;;;12.40;99.90;;;;;;5015687;28;20033;-79
2023/01/01 00:27:54;;;;;;;28.52;25.45;;;12.30;99.90;;;;;;5015817;28;20033;-79
2023/01/01 00:30:20;;;;;;;34.10;25.38;;;12.30;99.90;;;;;;5014470;28;20041;-79
2023/01/01 00:32:45;;;;;;;29.70;25.00;;;12.20;99.90;;;;;;4994445;28;20033;-75
2023/01/01 00:35:11;;;;;;;29.85;23.83;;;12.20;99.90;;;;;;5013730;28;20044;-75
2023/01/01 00:37:37;;;;;;;29.95;24.27;;;12.20;99.90;;;;;;5011360;28;20130;-77
2023/01/01 00:40:02;;;;;;;31.23;24.15;;;12.20;99.90;;;;;;5010262;28;20404;-76
2023/01/01 00:42:28;;;;;;;32.17;24.77;;;12.20;99.90;;;;;;5011750;28;20396;-77
2023/01/01 00:44:53;;;;;;;34.22;26.52;;;12.20;99.90;;;;;;5016873;28;20049;-77
2023/01/01 00:47:19;;;;;;;38.15;26.27;;;12.20;99.90;;;;;;5015145;28;20550;-77
2023/01/01 00:49:45;;;;;;;31.05;23.05;;;12.20;99.90;;;;;;5014001;28;20037;-76
2023/01/01 00:52:10;;;;;;;28.30;23.13;;;12.20;99.90;;;;;;4997042;28;20030;-77
2023/01/01 00:54:36;;;;;;;28.67;23.90;;;12.30;99.90;;;;;;4997176;28;20054;-77
2023/01/01 00:57:01;;;;;;;29.13;22.83;;;12.40;99.90;;;;;;5013709;28;20063;-77
2023/01/01 00:59:27;;;;;;;30.55;21.77;;;12.40;99.90;;;;;;5015143;28;20477;-77
2023/01/01 01:01:52;;;;;;;27.65;20.80;;;12.40;99.90;;;;;;4999924;28;20044;-77
2023/01/01 01:04:18;;;;;;;27.27;20.50;;;12.40;99.90;;;;;;5017020;28;20044;-77
2023/01/01 01:06:44;;;;;;;29.23;21.42;;;12.50;99.90;;;;;;5015312;28;20041;-77
2023/01/01 01:09:09;;;;;;;26.33;18.77;;;12.50;99.90;;;;;;5031948;28;20033;-77
2023/01/01 01:11:35;;;;;;;26.55;20.25;;;12.60;99.90;;;;;;5015317;28;20529;-77
2023/01/01 01:14:00;;;;;;;24.10;19.05;;;12.60;99.90;;;;;;4996823;28;20045;-77
2023/01/01 01:16:32;;;;;;;21.63;17.90;;;12.60;99.90;;;;;;5013326;28;20487;-77
2023/01/01 01:19:01;;;;;;;24.33;18.08;;;12.60;99.90;;;;;;5009814;28;20045;-77
2023/01/01 01:21:29;;;;;;;28.70;20.70;;;12.70;99.90;;;;;;5014250;28;20044;-76
2023/01/01 01:23:57;;;;;;;29.63;18.13;;;12.70;99.90;;;;;;5016047;28;20171;-76
2023/01/01 01:26:25;;;;;;;23.50;17.52;;;12.70;99.90;;;;;;4999801;28;20037;-76
2023/01/01 01:28:52;;;;;;;21.17;17.25;;;12.70;99.90;;;;;;5015912;28;20068;-76
2023/01/01 01:31:19;;;;;;;24.33;18.65;;;12.70;99.90;;;;;;5009773;28;20049;-76
2023/01/01 01:33:46;;;;;;;22.65;17.92;;;12.60;99.90;;;;;;5011568;28;20038;-76
2023/01/01 01:36:12;;;;;;;27.90;19.00;;;12.60;99.90;;;;;;5010879;28;20030;-76
2023/01/01 01:38:39;;;;;;;25.63;18.95;;;12.70;99.90;;;;;;5012274;28;20045;-77
2023/01/01 01:41:04;;;;;;;27.27;18.17;;;12.60;99.90;;;;;;5013957;28;20033;-77
2023/01/01 01:43:33;;;;;;;23.23;19.67;;;12.60;99.90;;;;;;4999445;28;20068;-76
2023/01/01 01:46:05;;;;;;;23.70;19.02;;;12.60;99.90;;;;;;4996625;28;20302;-76
2023/01/01 01:48:39;;;;;;;26.15;19.75;;;12.60;99.90;;;;;;5011779;28;20045;-77
2023/01/01 01:51:05;;;;;;;22.58;18.45;;;12.50;99.90;;;;;;5014096;28;20029;-76
2023/01/01 01:53:34;;;;;;;24.55;18.50;;;12.50;99.90;;;;;;5015895;28;20407;-76
2023/01/01 01:56:04;;;;;;;27.85;19.80;;;12.50;99.90;;;;;;5013749;28;20056;-76
2023/01/01 01:58:31;;;;;;;22.05;18.40;;;12.40;99.90;;;;;;4996079;28;20507;-76
2023/01/01 02:00:57;;;;;;;23.98;20.38;;;12.30;99.90;;;;;;5015043;28;20400;-76
2023/01/01 02:03:30;;;;;;;25.15;17.00;;;12.20;99.90;;;;;;5013122;28;20033;-77
2023/01/01 02:05:57;;;;;;;23.98;18.10;;;12.20;99.90;;;;;;4994766;28;20046;-76
2023/01/01 02:08:24;;;;;;;25.13;17.85;;;12.30;99.90;;;;;;5011654;28;20045;-76
2023/01/01 02:10:50;;;;;;;23.05;17.15;;;12.30;99.90;;;;;;4996333;28;20045;-76
2023/01/01 02:13:16;;;;;;;20.70;14.90;;;12.30;99.90;;;;;;4998164;28;20043;-76
2023/01/01 02:16:10;;;;;;;18.52;14.45;;;12.30;99.90;;;;;;5013085;28;20115;-77
2023/01/01 02:18:49;;;;;;;21.77;14.25;;;12.40;99.90;;;;;;5010619;28;20045;-76
2023/01/01 02:21:21;;;;;;;17.63;12.65;;;12.40;99.90;;;;;;5012831;28;20076;-76
2023/01/01 02:23:56;;;;;;;19.20;12.70;;;12.50;99.90;;;;;;5011443;28;20591;-76
2023/01/01 02:26:25;;;;;;;18.67;12.40;;;12.50;99.90;;;;;;5009658;28;20511;-76
2023/01/01 02:29:46;;;;;;;21.65;11.73;;;12.50;99.90;;;;;;5010610;28;20045;-76
2023/01/01 02:32:18;;;;;;;17.25;10.95;;;12.40;99.90;;;;;;4974630;28;20068;-76
2023/01/01 02:34:58;;;;;;;19.43;11.57;;;12.50;99.90;;;;;;5010295;28;20193;-76
2023/01/01 02:37:27;;;;;;;15.60;9.73;;;12.50;99.90;;;;;;4994024;28;20639;-76
2023/01/01 02:39:57;;;;;;;14.82;9.30;;;12.50;99.90;;;;;;5012504;28;20076;-76
2023/01/01 02:42:26;;;;;;;19.60;9.35;;;12.50;99.90;;;;;;5047590;28;20048;-76
2023/01/01 02:44:55;;;;;;;15.15;7.50;;;12.50;99.90;;;;;;5012475;28;20037;-76
2023/01/01 02:47:21;;;;;;;12.27;7.15;;;12.60;99.90;;;;;;4997491;28;21310;-76
2023/01/01 02:50:12;;;;;;;13.70;6.38;;;12.60;99.90;;;;;;5014600;28;20033;-76
2023/01/01 02:53:02;;;;;;;10.23;5.40;;;12.60;99.90;;;;;;5014525;28;20084;-77
2023/01/01 02:56:03;;;;;;;12.00;5.40;;;12.70;99.90;;;;;;5004803;28;20137;-76
2023/01/01 03:01:47;;;;;;;9.75;4.78;;;12.80;99.90;;;;;;5007205;28;20052;-76
2023/01/01 03:04:53;;;;;;;12.27;4.80;;;12.90;99.90;;;;;;5012578;28;20380;-76
2023/01/01 03:07:32;;;;;;;11.05;3.88;;;13.00;99.90;;;;;;5007411;28;20033;-76
2023/01/01 03:10:08;;;;;;;10.60;4.05;;;13.10;99.90;;;;;;4997246;28;20041;-76
2023/01/01 03:12:42;;;;;;;11.05;3.70;;;13.10;99.90;;;;;;4997285;28;20092;-77
2023/01/01 03:15:16;;;;;;;9.18;3.42;;;13.10;99.90;;;;;;5012099;28;20037;-76
2023/01/01 03:17:53;;;;;;;9.38;3.90;;;13.20;99.90;;;;;;5010534;28;20056;-77
2023/01/01 03:20:26;;;;;;;9.52;4.10;;;13.20;99.90;;;;;;5012797;28;20046;-77
2023/01/01 03:22:57;;;;;;;8.40;3.70;;;13.30;99.90;;;;;;5012677;28;20079;-76
2023/01/01 03:25:26;;;;;;;9.60;3.90;;;13.30;99.90;;;;;;5009001;28;20558;-77
2023/01/01 03:27:58;;;;;;;6.78;3.42;;;13.40;99.90;;;;;;4997401;28;20085;-77
2023/01/01 03:30:24;;;;;;;8.65;3.70;;;13.40;99.90;;;;;;4996121;28;20708;-77
2023/01/01 03:33:04;;;;;;;7.55;3.80;;;13.40;99.90;;;;;;5012994;28;20437;-77
2023/01/01 03:35:46;;;;;;;8.82;3.35;;;13.30;99.90;;;;;;5003502;28;20189;-76
2023/01/01 03:38:22;;;;;;;7.88;2.95;;;13.30;99.90;;;;;;5010605;28;20096;-77
2023/01/01 03:40:52;;;;;;;10.10;3.28;;;13.30;99.90;;;;;;5012405;28;20041;-77
2023/01/01 03:43:33;;;;;;;9.65;3.13;;;13.40;99.90;;;;;;5013633;28;20044;-77
2023/01/01 03:46:00;;;;;;;6.05;2.92;;;13.40;99.90;;;;;;5011765;28;20086;-76
2023/01/01 03:48:26;;;;;;;11.63;4.50;;;13.50;99.90;;;;;;5008374;28;20025;-77
2023/01/01 03:51:14;;;;;;;9.15;3.58;;;13.50;99.90;;;;;;5008954;28;20038;-77
2023/01/01 03:53:41;;;;;;;6.07;2.72;;;13.40;99.90;;;;;;5013990;28;20037;-77
2023/01/01 03:56:24;;;;;;;7.82;3.08;;;13.40;99.90;;;;;;5011288;28;20072;-77
2023/01/01 03:59:22;;;;;;;8.23;2.50;;;13.40;99.90;;;;;;5010083;28;20053;-77
2023/01/01 04:01:52;;;;;;;8.68;2.88;;;13.40;99.90;;;;;;5009783;28;20490;-77
2023/01/01 04:04:18;;;;;;;6.30;2.83;;;13.40;99.90;;;;;;5009694;28;20042;-77
2023/01/01 04:06:45;;;;;;;7.50;2.70;;;13.40;99.90;;;;;;4995399;28;20072;-76
2023/01/01 04:09:15;;;;;;;8.90;2.53;;;13.30;99.90;;;;;;5009961;28;20042;-77
2023/01/01 04:14:37;;;;;;;9.25;2.88;;;13.40;99.90;;;;;;5010153;28;20049;-77
2023/01/01 04:17:04;;;;;;;9.68;2.50;;;13.30;99.90;;;;;;5000207;28;20041;-77
2023/01/01 04:19:30;;;;;;;10.70;2.72;;;13.30;99.90;;;;;;5017523;28;20045;-77
2023/01/01 04:21:56;;;;;;;8.65;2.72;;;13.30;99.90;;;;;;5016260;28;20038;-78
2023/01/01 04:24:22;;;;;;;8.02;2.60;;;13.40;99.90;;;;;;4997595;28;20046;-77
2023/01/01 04:26:50;;;;;;;5.53;2.10;;;13.40;99.90;;;;;;5016126;28;20124;-76
2023/01/01 04:29:15;;;;;;;7.53;2.67;;;13.40;99.90;;;;;;5000579;28;20044;-76
2023/01/01 04:31:41;;;;;;;6.57;2.33;;;13.40;99.90;;;;;;5016816;28;20124;-77
2023/01/01 04:34:07;;;;;;;9.68;2.83;;;13.40;99.90;;;;;;4999609;28;20562;-77
2023/01/01 04:36:33;;;;;;;7.85;2.75;;;13.40;99.90;;;;;;5013843;28;20034;-77
2023/01/01 04:38:59;;;;;;;7.72;2.65;;;13.40;99.90;;;;;;4999858;28;20399;-77
2023/01/01 04:41:25;;;;;;;4.32;1.92;;;13.40;99.90;;;;;;5011307;28;20034;-77
2023/01/01 04:43:50;;;;;;;4.95;2.17;;;13.50;99.90;;;;;;5013856;28;20042;-77
2023/01/01 04:46:17;;;;;;;8.40;2.30;;;13.40;99.90;;;;;;4997568;28;20506;-77
2023/01/01 04:48:43;;;;;;;5.40;1.90;;;13.40;99.90;;;;;;5013566;28;20503;-77
2023/01/01 04:51:11;;;;;;;5.28;1.80;;;13.40;99.90;;;;;;5014211;28;20041;-77
2023/01/01 04:53:37;;;;;;;6.68;2.40;;;13.40;99.90;;;;;;5033426;28;20124;-77
2023/01/01 04:56:08;;;;;;;6.65;2.22;;;13.30;99.90;;;;;;4997079;28;20166;-77
2023/01/01 04:58:34;;;;;;;6.50;1.90;;;13.30;99.90;;;;;;5013645;28;20092;-77
2023/01/01 05:01:00;;;;;;;6.13;2.08;;;13.30;99.90;;;;;;5014326;28;20147;-77
2023/01/01 05:03:26;;;;;;;7.70;2.10;;;13.20;99.90;;;;;;5000427;28;20128;-77
2023/01/01 05:06:03;;;;;;;6.03;1.80;;;13.10;99.90;;;;;;5015269;28;20038;-77
2023/01/01 05:08:30;;;;;;;5.93;1.85;;;13.10;99.90;;;;;;5016340;28;20034;-77
2023/01/01 05:11:06;;;;;;;6.05;1.75;;;13.00;99.90;;;;;;4997898;28;20037;-77
2023/01/01 05:13:37;;;;;;;5.28;1.45;;;13.00;99.90;;;;;;5017001;28;20507;-77
2023/01/01 05:16:08;;;;;;;4.95;1.70;;;12.90;99.90;;;;;;5049864;28;20388;-77
2023/01/01 05:18:34;;;;;;;5.63;2.22;;;12.90;99.90;;;;;;5016163;28;20087;-77
2023/01/01 05:21:05;;;;;;;5.43;2.13;;;12.80;99.90;;;;;;5001162;28;20048;-77
2023/01/01 05:23:31;;;;;;;4.82;1.38;;;12.80;99.90;;;;;;4998985;28;20148;-77
2023/01/01 05:25:57;;;;;;;6.60;1.80;;;12.80;99.90;;;;;;5012150;28;20149;-77
2023/01/01 05:28:23;;;;;;;5.35;1.50;;;12.70;99.90;;;;;;5012800;28;20124;-77
2023/01/01 05:30:50;;;;;;;4.97;1.40;;;12.70;99.90;;;;;;4997610;28;20042;-76
2023/01/01 05:33:16;;;;;;;5.05;1.50;;;12.70;99.90;;;;;;4999513;28;20041;-77
2023/01/01 05:35:41;;;;;;;6.00;1.50;;;12.70;99.90;;;;;;5014519;28;20045;-77
2023/01/01 05:38:07;;;;;;;4.82;1.60;;;12.70;99.90;;;;;;5049233;28;20037;-77
2023/01/01 05:40:32;;;;;;;6.82;1.55;;;12.60;99.90;;;;;;4997517;28;20124;-77
2023/01/01 05:42:58;;;;;;;6.07;1.83;;;12.60;99.90;;;;;;4999206;28;20033;-77
2023/01/01 05:45:24;;;;;;;5.35;1.35;;;12.60;99.90;;;;;;5014947;28;20134;-77
2023/01/01 05:47:49;;;;;;;5.82;1.60;;;12.60;99.90;;;;;;5016417;28;20414;-78
2023/01/01 05:50:15;;;;;;;6.25;1.50;;;12.60;99.90;;;;;;5010948;28;20065;-78
2023/01/01 05:52:40;;;;;;;6.10;1.60;;;12.60;99.90;;;;;;5010926;28;20037;-77
2023/01/01 05:55:06;;;;;;;4.88;2.20;;;12.50;99.90;;;;;;5015730;28;20048;-78
2023/01/01 05:57:32;;;;;;;5.28;1.40;;;12.50;99.90;;;;;;5015604;28;20041;-77
2023/01/01 05:59:57;;;;;;;4.90;1.40;;;12.40;99.90;;;;;;4989541;28;20038;-78
2023/01/01 06:02:23;;;;;;;5.45;1.88;;;12.40;99.90;;;;;;5009907;28;20038;-77
2023/01/01 06:04:48;;;;;;;3.88;1.25;;;12.30;99.90;;;;;;5003653;28;20042;-77
2023/01/01 06:07:14;;;;;;;3.03;1.33;;;12.30;99.90;;;;;;5015237;28;20067;-78
2023/01/01 06:09:40;;;;;;;5.40;1.38;;;12.30;99.90;;;;;;5010500;23;20046;-73
2023/01/01 06:12:06;;;;;;;4.22;1.60;;;12.30;99.90;;;;;;4992225;28;20491;-72
2023/01/01 06:14:32;;;;;;;4.53;1.20;;;12.30;99.90;;;;;;4991033;28;20050;-76
2023/01/01 06:16:57;;;;;;;6.30;1.83;;;12.30;99.90;;;;;;5011672;28;20491;-76
2023/01/01 06:19:23;;;;;;;6.07;1.60;;;12.20;99.90;;;;;;4999509;28;20041;-76
2023/01/01 06:21:48;;;;;;;5.13;1.60;;;12.20;99.90;;;;;;4989140;28;20058;-76
2023/01/01 06:24:14;;;;;;;6.78;1.80;;;12.20;99.90;;;;;;4976165;28;20133;-76
2023/01/01 06:26:40;;;;;;;8.65;2.00;;;12.20;99.90;;;;;;4992765;28;20030;-76
2023/01/01 06:29:05;;;;;;;5.88;1.50;;;12.10;99.90;;;;;;4985019;28;20116;-76
2023/01/01 06:31:31;;;;;;;5.40;1.50;;;12.20;99.90;;;;;;4992382;28;20061;-78
2023/01/01 06:33:57;;;;;;;6.05;1.50;;;12.10;99.90;;;;;;4985807;28;20045;-77
2023/01/01 06:36:24;;;;;;;5.53;1.70;;;12.20;99.90;;;;;;4994223;28;20030;-76
2023/01/01 06:38:54;;;;;;;6.18;1.85;;;12.10;99.90;;;;;;4990785;28;20129;-76
2023/01/01 06:41:22;;;;;;;8.88;1.85;;;12.10;99.90;;;;;;4981750;28;20038;-73
2023/01/01 06:43:48;;;;;;;4.25;1.48;;;12.00;99.90;;;;;;4983756;28;20133;-76
2023/01/01 06:46:14;;;;;;;8.43;1.88;;;12.00;99.90;;;;;;4990836;28;20117;-76
2023/01/01 06:48:39;;;;;;;6.60;1.60;;;12.00;99.90;;;;;;4975254;28;20046;-76
2023/01/01 06:51:14;;;;;;;5.60;1.90;;;12.00;99.90;;;;;;4967534;28;20031;-72
2023/01/01 06:53:40;;;;;;;5.18;2.05;;;11.90;99.90;;;;;;4985750;28;20039;-74
2023/01/01 06:56:06;;;;;;;6.28;1.73;;;11.90;99.90;;;;;;4989843;28;20085;-74
2023/01/01 06:58:31;;;;;;;5.38;1.77;;;11.90;99.90;;;;;;4988184;28;20038;-72
2023/01/01 07:01:15;;;;;;;7.88;1.80;;;11.80;99.90;;;;;;4965794;28;20045;-72
2023/01/01 07:03:41;;;;;;;;;;;11.80;99.90;;;;;;4992140;28;20069;-73
2023/01/01 07:06:08;;;;;;;8.52;1.70;;;11.80;99.90;;;;;;4972924;28;19997;-73
2023/01/01 07:08:34;;;;;;;4.55;1.85;;;11.80;99.90;;;;;;4988813;28;20325;-73
2023/01/01 07:11:03;;;;;;;6.28;1.77;;;11.80;99.90;;;;;;4990307;28;20120;-75
2023/01/01 07:13:30;;;;;;;6.93;1.70;;;11.80;99.90;;;;;;4973622;28;20042;-74
2023/01/01 07:15:55;;;;;;;7.90;1.60;;;11.80;99.90;;;;;;4965726;28;20046;-74
2023/01/01 07:18:24;;;;;;;5.55;1.85;;;11.90;99.90;;;;;;4970974;28;20092;-75
2023/01/01 07:20:53;;;;;;;7.22;1.50;;;11.80;99.90;;;;;;4973711;28;20496;-76
2023/01/01 07:23:18;;;;;;;6.22;1.60;;;11.70;99.90;;;;;;4969502;28;20144;-74
2023/01/01 07:25:44;;;;;;;4.63;1.23;;;11.70;99.90;;;;;;4981460;28;20114;-77
2023/01/01 07:28:11;;;;;;;6.35;1.42;;;11.60;99.90;;;;;;4974567;28;20042;-74
2023/01/01 07:30:37;;;;;;;9.88;1.83;;;11.70;99.90;;;;;;4973410;28;20069;-76
2023/01/01 07:33:02;;;;;;;6.70;1.23;;;11.70;99.90;;;;;;4968622;28;20043;-76
2023/01/01 07:35:28;;;;;;;5.93;1.60;;;11.70;99.90;;;;;;4969153;28;20097;-76
2023/01/01 07:37:53;;;;;;;8.25;1.92;;;11.70;99.90;;;;;;4972477;28;20038;-77
2023/01/01 07:40:19;;;;;;;7.20;1.48;;;11.70;99.90;;;;;;4972246;28;20069;-79
2023/01/01 07:42:47;;;;;;;6.53;1.73;;;11.70;99.90;;;;;;4983454;28;20054;-76
2023/01/01 07:45:13;;;;;;;7.22;1.48;;;11.70;99.90;;;;;;4962672;28;20057;-78
2023/01/01 07:47:41;;;;;;;9.60;1.50;;;11.70;99.90;;;;;;4970986;28;20041;-75
2023/01/01 07:50:17;;;;;;;8.60;1.48;;;11.70;99.90;;;;;;4975839;28;20034;-75
2023/01/01 07:52:49;;;;;;;7.30;1.83;;;11.70;99.90;;;;;;4976740;28;20054;-76
2023/01/01 07:55:18;;;;;;;7.25;1.60;;;11.70;99.90;;;;;;4972472;28;20039;-77
2023/01/01 07:57:45;;;;;;;5.07;1.30;;;11.70;99.90;;;;;;4977815;28;20038;-75
2023/01/01 08:00:16;;;;;;;5.22;1.70;;;11.60;99.90;;;;;;4981055;28;20129;-74
2023/01/01 08:02:45;;;;;;;6.25;1.75;;;11.60;99.90;;;;;;4981552;28;20042;-75
2023/01/01 08:05:11;;;;;;;7.55;1.33;;;11.70;99.90;;;;;;4971853;28;20500;-75
2023/01/01 08:07:47;;;;;;;9.52;1.90;;;11.60;99.90;;;;;;4980577;28;20049;-75
2023/01/01 08:10:20;;;;;;;6.03;1.10;;;11.60;99.90;;;;;;4972528;28;20559;-75
2023/01/01 08:12:48;;;;;;;7.10;1.60;;;11.60;99.90;;;;;;4980492;28;20035;-77
2023/01/01 08:15:27;;;;;;;5.38;1.40;;;11.50;99.90;;;;;;4980915;28;20045;-79
2023/01/01 08:18:02;;;;;;;9.45;1.83;;;11.50;99.90;;;;;;4980111;28;20049;-75
2023/01/01 08:20:29;;;;;;;7.22;1.40;;;11.50;99.90;;;;;;4978018;28;20049;-75
2023/01/01 08:23:03;;;;;;;8.05;1.70;;;11.50;99.90;;;;;;4980780;28;20504;-75
2023/01/01 08:25:29;;;;;;;9.07;1.85;;;11.50;99.90;;;;;;4980977;28;20046;-78
2023/01/01 08:27:55;;;;;;;10.35;2.10;;;11.50;99.90;;;;;;4980890;28;20042;-78
2023/01/01 08:30:23;;;;;;;7.38;2.63;;;11.50;99.90;;;;;;4997001;28;20045;-75
2023/01/01 08:32:49;;;;;;;8.45;1.67;;;11.40;99.90;;;;;;4980219;28;20050;-78
2023/01/01 08:35:17;;;;;;;7.63;1.60;;;11.50;99.90;;;;;;4972787;28;20381;-78
2023/01/01 08:37:45;;;;;;;8.07;1.63;;;11.40;99.90;;;;;;4980898;28;20050;-77
2023/01/01 08:40:12;;;;;;;9.05;2.25;;;11.40;99.90;;;;;;4980788;28;20113;-77
2023/01/01 08:42:38;;;;;;;7.00;2.10;;;11.30;99.90;;;;;;4980722;28;20038;-77
2023/01/01 08:45:04;;;;;;;10.38;1.42;;;11.40;99.90;;;;;;4980518;28;20382;-78
2023/01/01 08:47:32;;;;;;;8.18;2.13;;;11.40;99.90;;;;;;4979168;28;20038;-78
2023/01/01 08:50:00;;;;;;;7.97;1.50;;;11.40;99.90;;;;;;4979362;28;20049;-78
2023/01/01 08:52:32;;;;;;;6.38;1.50;;;11.30;99.90;;;;;;4996756;28;20038;-77
2023/01/01 08:55:00;;;;;;;7.55;1.50;;;11.30;99.90;;;;;;4980772;28;20042;-78
2023/01/01 08:57:29;;;;;;;7.85;2.03;;;11.30;99.90;;;;;;4977813;28;20074;-75
2023/01/01 08:59:55;;;;;;;12.07;1.90;;;11.40;99.90;;;;;;4976078;28;20054;-75
2023/01/01 09:02:28;;;;;;;7.82;2.20;;;11.30;99.90;;;;;;4993323;28;20324;-75
2023/01/01 09:04:56;;;;;;;10.85;2.35;;;11.40;99.90;;;;;;4993692;28;20043;-75
2023/01/01 09:07:31;;;;;;;9.07;1.50;;;11.30;99.90;;;;;;4976351;28;20050;-76
2023/01/01 09:09:56;;;;;;;9.45;1.70;;;11.30;99.90;;;;;;4990251;28;20038;-76
2023/01/01 09:12:22;;;;;;;10.60;2.05;;;11.30;99.90;;;;;;4967278;28;20496;-75
2023/01/01 09:14:48;;;;;;;7.88;1.63;;;11.30;99.90;;;;;;4975753;28;20077;-77
2023/01/01 09:17:14;;;;;;;9.63;1.80;;;11.30;99.90;;;;;;4976825;28;20038;-76
2023/01/01 09:19:40;;;;;;;9.80;1.98;;;11.30;99.90;;;;;;4973875;28;20579;-75
2023/01/01 09:22:10;;;;;;;10.02;2.03;;;11.30;99.90;;;;;;4966549;28;20112;-74
2023/01/01 09:24:35;;;;;;;7.53;1.45;;;11.40;99.90;;;;;;4973913;28;20046;-75
2023/01/01 09:27:01;;;;;;;6.32;1.25;;;11.30;99.90;;;;;;4984956;28;20038;-74
2023/01/01 09:29:27;;;;;;;6.55;1.42;;;11.30;99.90;;;;;;4972130;28;20485;-77
2023/01/01 09:31:52;;;;;;;7.72;1.98;;;11.30;99.90;;;;;;4970220;28;20500;-77
2023/01/01 09:34:21;;;;;;;10.60;2.33;;;11.30;99.90;;;;;;4984150;28;20121;-77
2023/01/01 09:36:47;;;;;;;8.75;1.65;;;11.30;99.90;;;;;;4983204;28;20532;-76
2023/01/01 09:39:14;;;;;;;9.43;2.03;;;11.40;99.90;;;;;;4985862;28;20066;-77
2023/01/01 09:41:49;;;;;;;7.65;1.55;;;11.40;99.90;;;;;;4972179;28;20585;-75
2023/01/01 09:44:48;;;;;;;9.32;1.75;;;11.50;99.90;;;;;;4972003;28;20477;-77
2023/01/01 09:47:20;;;;;;;7.53;1.73;;;11.50;99.90;;;;;;4976380;28;20466;-77
2023/01/01 09:49:47;;;;;;;6.75;1.75;;;11.50;99.90;;;;;;4983110;28;20042;-77
2023/01/01 09:52:15;;;;;;;7.55;1.63;;;11.60;99.90;;;;;;4976467;28;20047;-77
2023/01/01 09:55:00;;;;;;;8.30;1.83;;;11.60;99.90;;;;;;4993365;28;20050;-77
2023/01/01 09:57:29;;;;;;;7.47;1.42;;;11.60;99.90;;;;;;4992871;28;20034;-77
2023/01/01 10:00:01;;;;;;;8.45;1.55;;;11.60;99.90;;;;;;4972369;28;20043;-75
2023/01/01 10:03:00;;;;;;;6.70;1.88;;;11.60;99.90;;;;;;4985756;28;20039;-76
2023/01/01 10:05:54;;;;;;;8.02;1.48;;;11.70;99.90;;;;;;4989088;28;20042;-75
2023/01/01 10:08:20;;;;;;;9.98;1.40;;;11.60;99.90;;;;;;4965461;28;20038;-74
2023/01/01 10:11:08;;;;;;;7.35;1.50;;;11.70;99.90;;;;;;4971696;28;20176;-75
2023/01/01 10:13:54;;;;;;;7.78;1.50;;;11.70;99.90;;;;;;4988712;28;20424;-74
2023/01/01 10:16:22;;;;;;;7.32;1.50;;;11.60;99.90;;;;;;4971500;28;20038;-74
2023/01/01 10:18:52;;;;;;;8.23;2.05;;;11.60;99.90;;;;;;4990399;28;20529;-74
2023/01/01 10:21:42;;;;;;;9.02;1.90;;;11.50;99.90;;;;;;4975429;28;20038;-74
2023/01/01 10:24:32;;;;;;;7.75;2.05;;;11.60;99.90;;;;;;4975068;28;20073;-74
2023/01/01 10:27:00;;;;;;;6.22;1.52;;;11.50;99.90;;;;;;4970579;28;20040;-75
2023/01/01 10:29:42;;;;;;;5.93;1.58;;;11.60;99.90;;;;;;4972305;28;20038;-75
2023/01/01 10:32:27;;;;;;;7.72;1.45;;;11.80;99.90;;;;;;4974933;28;20100;-74
2023/01/01 10:34:54;;;;;;;7.53;1.70;;;11.80;99.90;;;;;;4972121;28;20038;-74
2023/01/01 10:37:21;;;;;;;6.60;1.13;;;11.90;99.90;;;;;;4986522;28;20125;-74
2023/01/01 10:39:47;;;;;;;7.50;1.60;;;12.00;99.90;;;;;;4977466;28;20043;-74
2023/01/01 10:42:14;;;;;;;8.50;2.03;;;12.00;99.90;;;;;;4971988;28;20081;-74
2023/01/01 10:44:40;;;;;;;6.10;1.55;;;11.90;99.90;;;;;;4960890;28;20496;-74
2023/01/01 10:47:29;;;;;;;9.57;1.70;;;12.00;99.90;;;;;;4989332;28;20030;-74
2023/01/01 10:50:06;;;;;;;9.77;2.05;;;12.00;99.90;;;;;;4973449;28;20049;-74
2023/01/01 10:52:54;;;;;;;7.93;1.65;;;12.00;99.90;;;;;;4991824;28;20050;-77
2023/01/01 10:55:24;;;;;;;9.68;1.92;;;12.00;99.90;;;;;;4973943;28;20042;-74
2023/01/01 10:57:50;;;;;;;8.02;1.75;;;12.10;99.90;;;;;;4974561;28;20061;-76
2023/01/01 11:00:26;;;;;;;8.85;1.60;;;12.10;99.90;;;;;;4987553;28;20050;-77
2023/01/01 11:03:17;;;;;;;7.07;1.60;;;12.10;99.90;;;;;;4987206;28;20074;-76
2023/01/01 11:06:09;;;;;;;12.07;2.00;;;12.10;99.90;;;;;;4972096;28;20463;-77
2023/01/01 11:08:38;;;;;;;10.65;2.95;;;12.20;99.90;;;;;;4968538;28;20073;-75
2023/01/01 11:11:04;;;;;;;10.70;1.80;;;12.40;99.90;;;;;;4969122;28;20038;-74
2023/01/01 11:13:50;;;;;;;8.40;1.63;;;12.50;99.90;;;;;;4973815;28;20037;-77
2023/01/01 11:16:38;;;;;;;5.18;1.42;;;12.60;99.90;;;;;;4989770;28;20046;-74
2023/01/01 11:19:15;;;;;;;9.13;1.63;;;12.60;99.90;;;;;;4973309;28;20053;-74
2023/01/01 11:21:46;;;;;;;10.45;2.00;;;12.70;99.90;;;;;;4974708;28;20397;-74
2023/01/01 11:24:22;;;;;;;10.43;1.83;;;12.90;99.90;;;;;;4971982;28;20034;-74
2023/01/01 11:26:49;;;;;;;9.10;1.98;;;12.80;99.90;;;;;;4973908;28;20034;-74
2023/01/01 11:29:15;;;;;;;8.85;1.90;;;12.90;99.90;;;;;;4972849;28;20038;-74
2023/01/01 11:31:43;;;;;;;8.05;1.83;;;12.90;99.90;;;;;;4986510;28;20080;-74
2023/01/01 11:34:24;;;;;;;9.77;1.67;;;12.90;99.90;;;;;;4969286;28;20030;-74
2023/01/01 11:37:04;;;;;;;8.02;1.73;;;12.80;99.90;;;;;;4974062;28;20065;-73
2023/01/01 11:39:31;;;;;;;8.70;1.40;;;12.70;99.90;;;;;;4969164;28;20038;-73
2023/01/01 11:41:58;;;;;;;9.07;2.10;;;12.70;99.90;;;;;;4987793;28;20057;-74
2023/01/01 11:44:38;;;;;;;15.05;3.83;;;12.60;99.90;;;;;;4972967;28;20084;-74
2023/01/01 11:47:06;;;;;;;9.70;2.05;;;12.60;99.90;;;;;;4991316;28;20117;-72
2023/01/01 11:49:34;;;;;;;8.45;2.20;;;12.80;99.90;;;;;;4969062;28;20038;-74
2023/01/01 11:52:30;;;;;;;7.55;1.60;;;12.80;99.90;;;;;;4973340;28;20061;-74
2023/01/01 11:55:22;;;;;;;6.72;1.52;;;12.70;99.90;;;;;;4972385;28;20117;-74
2023/01/01 11:58:29;;;;;;;10.15;1.90;;;12.80;99.90;;;;;;4958991;28;20054;-75
2023/01/01 12:01:02;;;;;;;8.68;1.77;;;13.20;99.90;;;;;;4989739;28;20436;-75
2023/01/01 12:03:35;;;;;;;10.60;2.13;;;13.40;99.90;;;;;;4973667;28;20077;-77
2023/01/01 12:06:29;;;;;;;8.23;1.67;;;13.20;99.90;;;;;;4972953;28;20632;-74
2023/01/01 12:09:21;;;;;;;11.18;1.48;;;13.00;99.90;;;;;;4971162;28;20604;-74
2023/01/01 12:12:08;;;;;;;7.72;1.58;;;12.70;99.90;;;;;;5045096;23;20411;-79
2023/01/01 12:14:43;;;;;;;8.73;1.88;;;12.50;99.90;;;;;;5008590;28;20501;-81
2023/01/01 12:17:22;;;;;;;10.95;2.33;;;12.40;99.90;;;;;;5014651;28;20069;-81
2023/01/01 12:20:11;;;;;;;6.40;1.67;;;12.30;99.90;;;;;;5010369;28;20038;-80
2023/01/01 12:22:38;;;;;;;5.82;2.08;;;12.30;99.90;;;;;;4992756;28;20120;-79
2023/01/01 12:25:04;;;;;;;8.63;1.80;;;12.30;99.90;;;;;;4993201;28;20141;-80
2023/01/01 12:27:49;;;;;;;12.57;1.88;;;12.20;99.90;;;;;;4975080;28;20034;-80
2023/01/01 12:30:24;;;;;;;10.95;1.90;;;12.20;99.90;;;;;;4969179;28;20038;-79
2023/01/01 12:33:31;;;;;;;9.23;1.80;;;12.20;99.90;;;;;;4976833;28;20046;-80
2023/01/01 12:36:02;;;;;;;8.18;1.90;;;12.20;99.90;;;;;;4921956;29;20074;-82
2023/01/01 12:38:48;;;;;;;10.15;2.15;;;12.10;99.90;;;;;;4962087;28;20042;-79
2023/01/01 12:41:26;;;;;;;6.63;1.67;;;12.10;99.90;;;;;;4961912;28;20129;-81
2023/01/01 12:44:03;;;;;;;8.23;1.65;;;12.10;99.90;;;;;;4961819;28;20051;-80
2023/01/01 12:46:55;;;;;;;10.82;1.90;;;12.10;99.90;;;;;;4961749;28;20486;-81
2023/01/01 12:49:29;;;;;;;8.10;2.03;;;12.10;99.90;;;;;;4964078;28;20050;-81
2023/01/01 12:52:05;;;;;;;8.27;1.90;;;12.00;99.90;;;;;;4994755;28;20133;-80
2023/01/01 12:54:50;;;;;;;6.60;1.98;;;12.00;99.90;;;;;;4996927;28;20042;-80
2023/01/01 12:57:39;;;;;;;6.90;2.00;;;11.90;99.90;;;;;;4980649;28;20046;-80
2023/01/01 13:00:13;;;;;;;8.00;1.88;;;11.90;99.90;;;;;;4996953;28;20049;-80
2023/01/01 13:02:49;;;;;;;10.02;1.98;;;11.90;99.90;;;;;;4996296;28;20046;-79
2023/01/01 13:05:40;;;;;;;8.88;2.85;;;11.80;99.90;;;;;;4989927;28;20439;-80
2023/01/01 13:08:06;;;;;;;7.05;2.05;;;11.80;99.90;;;;;;4981445;28;20046;-80